sensor_id;sensor_type;location;lat;lon;timestamp;pressure;altitude;pressure_sealevel;temperature;humidity
60267;BME280;46125;61.360;-149.532;2023-05-10T00:00:08;99138.27;;;14.10;27.29
60267;BME280;46125;61.360;-149.532;2023-05-10T00:02:36;99132.62;;;15.15;28.03
60267;BME280;46125;61.360;-149.532;2023-05-10T00:05:06;99139.33;;;14.44;27.02
60267;BME280;46125;61.360;-149.532;2023-05-10T00:07:34;99139.01;;;14.81;27.87
60267;BME280;46125;61.360;-149.532;2023-05-10T00:10:03;99133.95;;;15.08;27.61
60267;BME280;46125;61.360;-149.532;2023-05-10T00:12:31;99134.14;;;14.75;28.66
60267;BME280;46125;61.360;-149.532;2023-05-10T00:15:00;99131.07;;;14.39;27.81
60267;BME280;46125;61.360;-149.532;2023-05-10T00:17:28;99129.13;;;14.02;29.29
60267;BME280;46125;61.360;-149.532;2023-05-10T00:19:58;99129.94;;;13.58;29.90
60267;BME280;46125;61.360;-149.532;2023-05-10T00:22:26;99129.39;;;13.57;28.53
60267;BME280;46125;61.360;-149.532;2023-05-10T00:24:54;99129.08;;;13.04;28.79
60267;BME280;46125;61.360;-149.532;2023-05-10T00:27:23;99129.98;;;13.33;27.54
60267;BME280;46125;61.360;-149.532;2023-05-10T00:29:51;99127.87;;;12.01;28.67
60267;BME280;46125;61.360;-149.532;2023-05-10T00:32:20;99126.65;;;13.93;27.41
60267;BME280;46125;61.360;-149.532;2023-05-10T00:34:48;99125.66;;;14.29;26.60
60267;BME280;46125;61.360;-149.532;2023-05-10T00:37:17;99124.04;;;12.34;31.56
60267;BME280;46125;61.360;-149.532;2023-05-10T00:39:45;99120.67;;;12.84;28.90
60267;BME280;46125;61.360;-149.532;2023-05-10T00:42:14;99120.44;;;13.98;27.82
60267;BME280;46125;61.360;-149.532;2023-05-10T00:44:42;99116.73;;;14.42;27.43
60267;BME280;46125;61.360;-149.532;2023-05-10T00:47:10;99118.42;;;14.76;26.81
60267;BME280;46125;61.360;-149.532;2023-05-10T00:49:39;99123.58;;;12.61;30.37
60267;BME280;46125;61.360;-149.532;2023-05-10T00:52:09;99121.93;;;12.84;28.38
60267;BME280;46125;61.360;-149.532;2023-05-10T00:54:38;99120.33;;;13.04;27.83
60267;BME280;46125;61.360;-149.532;2023-05-10T00:57:06;99119.09;;;12.85;28.92
60267;BME280;46125;61.360;-149.532;2023-05-10T00:59:35;99118.26;;;13.47;27.08
60267;BME280;46125;61.360;-149.532;2023-05-10T01:02:03;99116.62;;;12.01;27.46
60267;BME280;46125;61.360;-149.532;2023-05-10T01:04:32;99123.62;;;13.16;26.68
60267;BME280;46125;61.360;-149.532;2023-05-10T01:07:01;99121.42;;;12.44;28.51
60267;BME280;46125;61.360;-149.532;2023-05-10T01:09:29;99115.99;;;11.68;28.60
60267;BME280;46125;61.360;-149.532;2023-05-10T01:11:58;99106.40;;;14.55;26.82
60267;BME280;46125;61.360;-149.532;2023-05-10T01:14:27;99108.57;;;14.53;27.50
60267;BME280;46125;61.360;-149.532;2023-05-10T01:16:56;99107.87;;;13.65;27.87
60267;BME280;46125;61.360;-149.532;2023-05-10T01:19:27;99110.37;;;15.29;26.30
60267;BME280;46125;61.360;-149.532;2023-05-10T01:22:05;99113.72;;;12.94;28.67
60267;BME280;46125;61.360;-149.532;2023-05-10T01:24:51;99112.90;;;14.04;28.11
60267;BME280;46125;61.360;-149.532;2023-05-10T01:27:39;99120.01;;;13.67;27.92
60267;BME280;46125;61.360;-149.532;2023-05-10T01:30:25;99119.93;;;12.86;29.89
60267;BME280;46125;61.360;-149.532;2023-05-10T01:33:00;99121.11;;;13.34;29.87
60267;BME280;46125;61.360;-149.532;2023-05-10T01:35:35;99117.97;;;14.18;28.88
60267;BME280;46125;61.360;-149.532;2023-05-10T01:38:22;99116.27;;;13.98;28.86
60267;BME280;46125;61.360;-149.532;2023-05-10T01:41:01;99119.48;;;13.11;30.54
60267;BME280;46125;61.360;-149.532;2023-05-10T01:43:40;99123.41;;;13.98;30.61
60267;BME280;46125;61.360;-149.532;2023-05-10T01:46:14;99126.11;;;11.82;34.16
60267;BME280;46125;61.360;-149.532;2023-05-10T01:48:48;99130.17;;;13.23;32.82
60267;BME280;46125;61.360;-149.532;2023-05-10T01:51:23;99132.93;;;13.39;32.79
60267;BME280;46125;61.360;-149.532;2023-05-10T01:53:56;99133.96;;;12.97;34.00
60267;BME280;46125;61.360;-149.532;2023-05-10T01:56:29;99131.64;;;13.74;32.20
60267;BME280;46125;61.360;-149.532;2023-05-10T01:59:00;99132.97;;;13.11;33.18
60267;BME280;46125;61.360;-149.532;2023-05-10T02:01:30;99131.50;;;13.87;32.96
60267;BME280;46125;61.360;-149.532;2023-05-10T02:04:00;99129.07;;;12.62;35.13
60267;BME280;46125;61.360;-149.532;2023-05-10T02:06:29;99123.38;;;12.82;34.33
60267;BME280;46125;61.360;-149.532;2023-05-10T02:08:59;99126.26;;;11.83;36.71
60267;BME280;46125;61.360;-149.532;2023-05-10T02:11:29;99131.46;;;12.35;35.64
60267;BME280;46125;61.360;-149.532;2023-05-10T02:13:58;99130.87;;;12.31;36.27
60267;BME280;46125;61.360;-149.532;2023-05-10T02:16:29;99130.86;;;13.05;34.37
60267;BME280;46125;61.360;-149.532;2023-05-10T02:18:59;99136.00;;;13.24;35.17
60267;BME280;46125;61.360;-149.532;2023-05-10T02:21:30;99137.81;;;12.44;36.16
60267;BME280;46125;61.360;-149.532;2023-05-10T02:24:17;99135.02;;;11.61;37.89
60267;BME280;46125;61.360;-149.532;2023-05-10T02:26:46;99134.10;;;12.37;35.96
60267;BME280;46125;61.360;-149.532;2023-05-10T02:29:16;99138.13;;;12.72;35.33
60267;BME280;46125;61.360;-149.532;2023-05-10T02:31:46;99137.31;;;12.51;36.18
60267;BME280;46125;61.360;-149.532;2023-05-10T02:34:15;99140.27;;;13.00;35.55
60267;BME280;46125;61.360;-149.532;2023-05-10T02:36:54;99139.38;;;11.80;35.50
60267;BME280;46125;61.360;-149.532;2023-05-10T02:39:23;99137.82;;;13.11;35.00
60267;BME280;46125;61.360;-149.532;2023-05-10T02:41:54;99136.98;;;13.21;35.18
60267;BME280;46125;61.360;-149.532;2023-05-10T02:44:24;99137.92;;;13.53;34.45
60267;BME280;46125;61.360;-149.532;2023-05-10T02:46:54;99138.49;;;12.71;35.24
60267;BME280;46125;61.360;-149.532;2023-05-10T02:49:23;99135.24;;;12.21;36.55
60267;BME280;46125;61.360;-149.532;2023-05-10T02:51:56;99131.35;;;13.59;34.39
60267;BME280;46125;61.360;-149.532;2023-05-10T02:54:30;99129.18;;;12.50;36.84
60267;BME280;46125;61.360;-149.532;2023-05-10T02:57:03;99128.13;;;13.54;34.71
60267;BME280;46125;61.360;-149.532;2023-05-10T02:59:37;99129.64;;;12.69;35.53
60267;BME280;46125;61.360;-149.532;2023-05-10T03:02:06;99132.73;;;11.03;38.44
60267;BME280;46125;61.360;-149.532;2023-05-10T03:04:36;99135.40;;;12.27;38.15
60267;BME280;46125;61.360;-149.532;2023-05-10T03:07:05;99140.08;;;10.52;40.82
60267;BME280;46125;61.360;-149.532;2023-05-10T03:09:34;99136.31;;;11.04;39.64
60267;BME280;46125;61.360;-149.532;2023-05-10T03:12:11;99132.74;;;12.53;36.50
60267;BME280;46125;61.360;-149.532;2023-05-10T03:14:52;99133.48;;;11.97;37.61
60267;BME280;46125;61.360;-149.532;2023-05-10T03:17:28;99135.76;;;12.44;37.18
60267;BME280;46125;61.360;-149.532;2023-05-10T03:20:16;99132.54;;;11.93;37.80
60267;BME280;46125;61.360;-149.532;2023-05-10T03:22:51;99133.66;;;12.06;37.26
60267;BME280;46125;61.360;-149.532;2023-05-10T03:25:22;99134.15;;;12.00;37.08
60267;BME280;46125;61.360;-149.532;2023-05-10T03:27:52;99132.73;;;10.41;39.37
60267;BME280;46125;61.360;-149.532;2023-05-10T03:30:23;99137.03;;;10.69;40.24
60267;BME280;46125;61.360;-149.532;2023-05-10T03:32:52;99137.71;;;11.61;38.38
60267;BME280;46125;61.360;-149.532;2023-05-10T03:35:22;99142.82;;;12.31;37.05
60267;BME280;46125;61.360;-149.532;2023-05-10T03:37:52;99139.84;;;10.82;39.97
60267;BME280;46125;61.360;-149.532;2023-05-10T03:40:25;99134.30;;;12.46;37.24
60267;BME280;46125;61.360;-149.532;2023-05-10T03:42:54;99128.84;;;12.93;37.59
60267;BME280;46125;61.360;-149.532;2023-05-10T03:45:28;99134.31;;;12.09;38.76
60267;BME280;46125;61.360;-149.532;2023-05-10T03:47:57;99136.24;;;12.04;38.51
60267;BME280;46125;61.360;-149.532;2023-05-10T03:50:26;99139.69;;;12.47;37.45
60267;BME280;46125;61.360;-149.532;2023-05-10T03:52:55;99139.68;;;12.49;37.83
60267;BME280;46125;61.360;-149.532;2023-05-10T03:55:28;99135.62;;;12.95;37.67
60267;BME280;46125;61.360;-149.532;2023-05-10T03:58:02;99131.86;;;12.73;37.50
60267;BME280;46125;61.360;-149.532;2023-05-10T04:00:31;99133.03;;;12.09;38.85
60267;BME280;46125;61.360;-149.532;2023-05-10T04:03:05;99126.73;;;12.70;37.39
60267;BME280;46125;61.360;-149.532;2023-05-10T04:05:34;99132.67;;;11.53;38.84
60267;BME280;46125;61.360;-149.532;2023-05-10T04:08:02;99136.21;;;11.39;39.66
60267;BME280;46125;61.360;-149.532;2023-05-10T04:10:31;99141.70;;;11.46;39.89
60267;BME280;46125;61.360;-149.532;2023-05-10T04:13:00;99145.23;;;11.51;40.12
60267;BME280;46125;61.360;-149.532;2023-05-10T04:15:29;99146.83;;;11.66;40.06
60267;BME280;46125;61.360;-149.532;2023-05-10T04:17:57;99150.33;;;11.60;39.49
60267;BME280;46125;61.360;-149.532;2023-05-10T04:20:27;99151.36;;;11.02;40.85
60267;BME280;46125;61.360;-149.532;2023-05-10T04:22:56;99158.56;;;12.11;39.49
60267;BME280;46125;61.360;-149.532;2023-05-10T04:25:25;99164.34;;;12.44;37.88
60267;BME280;46125;61.360;-149.532;2023-05-10T04:27:54;99166.42;;;11.93;39.12
60267;BME280;46125;61.360;-149.532;2023-05-10T04:30:22;99166.52;;;12.09;38.09
60267;BME280;46125;61.360;-149.532;2023-05-10T04:32:50;99172.52;;;12.40;36.87
60267;BME280;46125;61.360;-149.532;2023-05-10T04:35:24;99172.29;;;11.28;39.31
60267;BME280;46125;61.360;-149.532;2023-05-10T04:37:53;99165.51;;;11.83;37.19
60267;BME280;46125;61.360;-149.532;2023-05-10T04:40:27;99162.84;;;12.01;37.44
60267;BME280;46125;61.360;-149.532;2023-05-10T04:42:56;99161.41;;;11.86;37.71
60267;BME280;46125;61.360;-149.532;2023-05-10T04:45:24;99162.80;;;11.68;38.00
60267;BME280;46125;61.360;-149.532;2023-05-10T04:47:53;99159.69;;;12.00;37.69
60267;BME280;46125;61.360;-149.532;2023-05-10T04:50:21;99154.31;;;11.68;38.41
60267;BME280;46125;61.360;-149.532;2023-05-10T04:52:50;99153.43;;;10.98;39.71
60267;BME280;46125;61.360;-149.532;2023-05-10T04:55:18;99161.25;;;9.32;43.38
60267;BME280;46125;61.360;-149.532;2023-05-10T04:57:47;99154.24;;;11.43;40.03
60267;BME280;46125;61.360;-149.532;2023-05-10T05:00:17;99151.98;;;12.01;39.34
60267;BME280;46125;61.360;-149.532;2023-05-10T05:02:46;99150.86;;;12.17;38.52
60267;BME280;46125;61.360;-149.532;2023-05-10T05:05:14;99155.46;;;10.68;40.76
60267;BME280;46125;61.360;-149.532;2023-05-10T05:07:48;99154.25;;;9.84;43.59
60267;BME280;46125;61.360;-149.532;2023-05-10T05:10:27;99151.01;;;11.02;40.99
60267;BME280;46125;61.360;-149.532;2023-05-10T05:12:56;99154.86;;;11.11;40.75
60267;BME280;46125;61.360;-149.532;2023-05-10T05:15:35;99150.04;;;11.38;39.57
60267;BME280;46125;61.360;-149.532;2023-05-10T05:18:09;99154.62;;;11.61;39.06
60267;BME280;46125;61.360;-149.532;2023-05-10T05:20:42;99152.73;;;11.75;38.79
60267;BME280;46125;61.360;-149.532;2023-05-10T05:23:11;99159.89;;;12.07;39.27
60267;BME280;46125;61.360;-149.532;2023-05-10T05:25:40;99163.56;;;11.57;40.14
60267;BME280;46125;61.360;-149.532;2023-05-10T05:28:10;99170.02;;;10.74;41.19
60267;BME280;46125;61.360;-149.532;2023-05-10T05:30:38;99167.53;;;11.06;40.26
60267;BME280;46125;61.360;-149.532;2023-05-10T05:33:07;99168.76;;;10.93;40.54
60267;BME280;46125;61.360;-149.532;2023-05-10T05:35:35;99163.92;;;11.36;39.56
60267;BME280;46125;61.360;-149.532;2023-05-10T05:38:19;99161.28;;;11.23;39.33
60267;BME280;46125;61.360;-149.532;2023-05-10T05:40:47;99160.48;;;11.39;39.25
60267;BME280;46125;61.360;-149.532;2023-05-10T05:43:16;99159.26;;;11.31;38.95
60267;BME280;46125;61.360;-149.532;2023-05-10T05:45:49;99159.34;;;10.92;40.09
60267;BME280;46125;61.360;-149.532;2023-05-10T05:48:18;99164.25;;;10.91;41.20
60267;BME280;46125;61.360;-149.532;2023-05-10T05:50:47;99173.67;;;10.16;42.71
60267;BME280;46125;61.360;-149.532;2023-05-10T05:53:16;99176.86;;;10.29;42.37
60267;BME280;46125;61.360;-149.532;2023-05-10T05:55:53;99178.25;;;10.50;41.96
60267;BME280;46125;61.360;-149.532;2023-05-10T05:58:22;99176.26;;;10.61;41.23
60267;BME280;46125;61.360;-149.532;2023-05-10T06:00:50;99174.68;;;10.80;40.89
60267;BME280;46125;61.360;-149.532;2023-05-10T06:03:18;99174.00;;;10.67;40.46
60267;BME280;46125;61.360;-149.532;2023-05-10T06:05:47;99183.33;;;10.39;41.02
60267;BME280;46125;61.360;-149.532;2023-05-10T06:08:15;99185.16;;;10.27;41.75
60267;BME280;46125;61.360;-149.532;2023-05-10T06:10:44;99187.46;;;8.25;45.31
60267;BME280;46125;61.360;-149.532;2023-05-10T06:13:17;99187.47;;;9.13;43.36
60267;BME280;46125;61.360;-149.532;2023-05-10T06:15:46;99186.33;;;9.52;42.64
60267;BME280;46125;61.360;-149.532;2023-05-10T06:18:15;99183.33;;;9.40;42.93
60267;BME280;46125;61.360;-149.532;2023-05-10T06:20:43;99188.97;;;9.81;42.53
60267;BME280;46125;61.360;-149.532;2023-05-10T06:23:12;99185.33;;;10.19;41.61
60267;BME280;46125;61.360;-149.532;2023-05-10T06:25:41;99187.04;;;10.36;41.21
60267;BME280;46125;61.360;-149.532;2023-05-10T06:28:10;99182.13;;;10.75;41.00
60267;BME280;46125;61.360;-149.532;2023-05-10T06:30:38;99176.99;;;10.55;40.87
60267;BME280;46125;61.360;-149.532;2023-05-10T06:33:07;99182.41;;;10.81;40.69
60267;BME280;46125;61.360;-149.532;2023-05-10T06:35:35;99188.10;;;10.65;40.30
60267;BME280;46125;61.360;-149.532;2023-05-10T06:38:04;99192.14;;;10.91;40.14
60267;BME280;46125;61.360;-149.532;2023-05-10T06:40:41;99195.27;;;10.71;40.15
60267;BME280;46125;61.360;-149.532;2023-05-10T06:43:20;99190.14;;;10.64;40.15
60267;BME280;46125;61.360;-149.532;2023-05-10T06:45:50;99179.00;;;10.54;40.27
60267;BME280;46125;61.360;-149.532;2023-05-10T06:48:19;99180.14;;;10.53;40.22
60267;BME280;46125;61.360;-149.532;2023-05-10T06:50:47;99178.59;;;10.17;40.86
60267;BME280;46125;61.360;-149.532;2023-05-10T06:53:16;99181.74;;;9.28;42.44
60267;BME280;46125;61.360;-149.532;2023-05-10T06:55:44;99182.23;;;9.15;43.01
60267;BME280;46125;61.360;-149.532;2023-05-10T06:58:13;99183.16;;;8.71;44.20
60267;BME280;46125;61.360;-149.532;2023-05-10T07:00:41;99190.43;;;9.10;43.88
60267;BME280;46125;61.360;-149.532;2023-05-10T07:03:10;99193.40;;;9.59;42.82
60267;BME280;46125;61.360;-149.532;2023-05-10T07:05:39;99196.41;;;9.16;43.15
60267;BME280;46125;61.360;-149.532;2023-05-10T07:08:07;99192.93;;;8.96;43.72
60267;BME280;46125;61.360;-149.532;2023-05-10T07:10:36;99197.55;;;9.50;42.51
60267;BME280;46125;61.360;-149.532;2023-05-10T07:13:15;99203.21;;;9.72;43.49
60267;BME280;46125;61.360;-149.532;2023-05-10T07:15:44;99202.71;;;8.35;45.36
60267;BME280;46125;61.360;-149.532;2023-05-10T07:18:13;99203.76;;;9.20;44.57
60267;BME280;46125;61.360;-149.532;2023-05-10T07:20:43;99203.52;;;9.73;43.44
60267;BME280;46125;61.360;-149.532;2023-05-10T07:23:11;99205.66;;;9.73;42.75
60267;BME280;46125;61.360;-149.532;2023-05-10T07:25:41;99202.45;;;9.75;42.40
60267;BME280;46125;61.360;-149.532;2023-05-10T07:28:09;99194.88;;;9.65;42.23
60267;BME280;46125;61.360;-149.532;2023-05-10T07:30:40;99193.62;;;9.66;42.21
60267;BME280;46125;61.360;-149.532;2023-05-10T07:33:10;99193.33;;;9.94;42.11
60267;BME280;46125;61.360;-149.532;2023-05-10T07:35:44;99192.05;;;9.76;41.95
60267;BME280;46125;61.360;-149.532;2023-05-10T07:38:12;99188.13;;;9.81;41.75
60267;BME280;46125;61.360;-149.532;2023-05-10T07:40:41;99180.64;;;9.00;43.01
60267;BME280;46125;61.360;-149.532;2023-05-10T07:43:16;99179.29;;;9.40;42.23
60267;BME280;46125;61.360;-149.532;2023-05-10T07:45:44;99186.66;;;9.60;42.04
60267;BME280;46125;61.360;-149.532;2023-05-10T07:48:13;99187.95;;;9.39;42.58
60267;BME280;46125;61.360;-149.532;2023-05-10T07:50:41;99188.13;;;9.04;43.44
60267;BME280;46125;61.360;-149.532;2023-05-10T07:53:11;99188.00;;;9.01;44.05
60267;BME280;46125;61.360;-149.532;2023-05-10T07:55:40;99179.81;;;8.96;43.09
60267;BME280;46125;61.360;-149.532;2023-05-10T07:58:08;99178.68;;;9.64;42.87
60267;BME280;46125;61.360;-149.532;2023-05-10T08:00:37;99176.69;;;9.85;42.55
60267;BME280;46125;61.360;-149.532;2023-05-10T08:03:06;99177.73;;;9.44;42.53
60267;BME280;46125;61.360;-149.532;2023-05-10T08:05:34;99174.39;;;8.84;44.24
60267;BME280;46125;61.360;-149.532;2023-05-10T08:08:03;99177.19;;;8.26;45.55
60267;BME280;46125;61.360;-149.532;2023-05-10T08:10:31;99179.00;;;8.53;44.92
60267;BME280;46125;61.360;-149.532;2023-05-10T08:13:00;99180.88;;;8.57;45.38
60267;BME280;46125;61.360;-149.532;2023-05-10T08:15:29;99180.02;;;8.95;44.05
60267;BME280;46125;61.360;-149.532;2023-05-10T08:17:58;99171.85;;;9.25;43.47
60267;BME280;46125;61.360;-149.532;2023-05-10T08:20:26;99173.77;;;9.02;43.77
60267;BME280;46125;61.360;-149.532;2023-05-10T08:23:05;99174.20;;;8.16;44.92
60267;BME280;46125;61.360;-149.532;2023-05-10T08:25:34;99172.86;;;8.79;44.99
60267;BME280;46125;61.360;-149.532;2023-05-10T08:28:05;99171.81;;;8.85;45.27
60267;BME280;46125;61.360;-149.532;2023-05-10T08:30:33;99172.83;;;8.54;45.95
60267;BME280;46125;61.360;-149.532;2023-05-10T08:33:03;99174.70;;;8.56;45.33
60267;BME280;46125;61.360;-149.532;2023-05-10T08:35:31;99176.20;;;8.92;44.44
60267;BME280;46125;61.360;-149.532;2023-05-10T08:37:59;99173.49;;;7.82;46.84
60267;BME280;46125;61.360;-149.532;2023-05-10T08:40:28;99172.41;;;8.69;45.41
60267;BME280;46125;61.360;-149.532;2023-05-10T08:43:01;99172.30;;;8.61;44.53
60267;BME280;46125;61.360;-149.532;2023-05-10T08:45:44;99170.52;;;8.21;45.71
60267;BME280;46125;61.360;-149.532;2023-05-10T08:48:13;99171.94;;;8.89;45.03
60267;BME280;46125;61.360;-149.532;2023-05-10T08:50:49;99168.54;;;8.66;45.58
60267;BME280;46125;61.360;-149.532;2023-05-10T08:53:21;99169.82;;;9.05;44.81
60267;BME280;46125;61.360;-149.532;2023-05-10T08:55:53;99171.04;;;9.33;44.23
60267;BME280;46125;61.360;-149.532;2023-05-10T08:58:22;99167.99;;;9.51;44.00
60267;BME280;46125;61.360;-149.532;2023-05-10T09:00:51;99166.43;;;9.12;44.09
60267;BME280;46125;61.360;-149.532;2023-05-10T09:03:19;99161.98;;;9.47;44.46
60267;BME280;46125;61.360;-149.532;2023-05-10T09:05:49;99163.85;;;9.09;44.32
60267;BME280;46125;61.360;-149.532;2023-05-10T09:08:18;99165.04;;;9.35;44.45
60267;BME280;46125;61.360;-149.532;2023-05-10T09:10:47;99158.63;;;7.80;47.54
60267;BME280;46125;61.360;-149.532;2023-05-10T09:13:18;99149.48;;;8.41;46.41
60267;BME280;46125;61.360;-149.532;2023-05-10T09:15:48;99146.47;;;8.66;45.86
60267;BME280;46125;61.360;-149.532;2023-05-10T09:18:16;99147.07;;;8.71;45.24
60267;BME280;46125;61.360;-149.532;2023-05-10T09:20:44;99149.96;;;8.73;45.25
60267;BME280;46125;61.360;-149.532;2023-05-10T09:23:13;99150.24;;;8.78;44.76
60267;BME280;46125;61.360;-149.532;2023-05-10T09:25:42;99145.17;;;8.96;43.95
60267;BME280;46125;61.360;-149.532;2023-05-10T09:28:12;99142.55;;;8.82;44.63
60267;BME280;46125;61.360;-149.532;2023-05-10T09:30:40;99141.91;;;8.89;44.91
60267;BME280;46125;61.360;-149.532;2023-05-10T09:33:09;99140.33;;;8.92;44.91
60267;BME280;46125;61.360;-149.532;2023-05-10T09:35:37;99139.76;;;8.83;44.79
60267;BME280;46125;61.360;-149.532;2023-05-10T09:38:06;99136.57;;;9.00;44.53
60267;BME280;46125;61.360;-149.532;2023-05-10T09:40:35;99135.86;;;9.08;44.45
60267;BME280;46125;61.360;-149.532;2023-05-10T09:43:05;99131.30;;;8.96;44.43
60267;BME280;46125;61.360;-149.532;2023-05-10T09:45:35;99127.93;;;9.18;43.95
60267;BME280;46125;61.360;-149.532;2023-05-10T09:48:04;99122.59;;;9.11;44.42
60267;BME280;46125;61.360;-149.532;2023-05-10T09:50:33;99115.07;;;9.04;44.47
60267;BME280;46125;61.360;-149.532;2023-05-10T09:53:02;99114.97;;;9.11;44.91
60267;BME280;46125;61.360;-149.532;2023-05-10T09:55:40;99112.51;;;9.23;44.45
60267;BME280;46125;61.360;-149.532;2023-05-10T09:58:09;99111.77;;;8.88;44.04
60267;BME280;46125;61.360;-149.532;2023-05-10T10:00:39;99114.20;;;9.30;43.61
60267;BME280;46125;61.360;-149.532;2023-05-10T10:03:13;99112.73;;;9.24;43.48
60267;BME280;46125;61.360;-149.532;2023-05-10T10:05:44;99107.96;;;9.35;43.19
60267;BME280;46125;61.360;-149.532;2023-05-10T10:08:13;99100.35;;;8.96;43.28
60267;BME280;46125;61.360;-149.532;2023-05-10T10:10:42;99100.88;;;9.34;43.82
60267;BME280;46125;61.360;-149.532;2023-05-10T10:13:10;99100.37;;;9.15;44.49
60267;BME280;46125;61.360;-149.532;2023-05-10T10:15:40;99100.51;;;9.15;44.27
60267;BME280;46125;61.360;-149.532;2023-05-10T10:18:13;99100.09;;;8.93;44.59
60267;BME280;46125;61.360;-149.532;2023-05-10T10:20:43;99099.27;;;7.22;47.31
60267;BME280;46125;61.360;-149.532;2023-05-10T10:23:12;99102.31;;;7.26;48.19
60267;BME280;46125;61.360;-149.532;2023-05-10T10:25:40;99101.36;;;7.74;47.52
60267;BME280;46125;61.360;-149.532;2023-05-10T10:28:21;99095.08;;;7.85;47.16
60267;BME280;46125;61.360;-149.532;2023-05-10T10:30:53;99098.87;;;6.81;49.34
60267;BME280;46125;61.360;-149.532;2023-05-10T10:33:36;99099.17;;;6.93;49.38
60267;BME280;46125;61.360;-149.532;2023-05-10T10:36:07;99104.94;;;7.18;48.80
60267;BME280;46125;61.360;-149.532;2023-05-10T10:38:38;99101.23;;;7.57;47.64
60267;BME280;46125;61.360;-149.532;2023-05-10T10:41:30;99098.22;;;8.22;46.35
60267;BME280;46125;61.360;-149.532;2023-05-10T10:45:13;99095.46;;;7.23;48.00
60267;BME280;46125;61.360;-149.532;2023-05-10T10:47:42;99088.33;;;7.58;47.68
60267;BME280;46125;61.360;-149.532;2023-05-10T10:50:10;99087.99;;;7.99;47.10
60267;BME280;46125;61.360;-149.532;2023-05-10T10:52:39;99087.21;;;8.32;46.48
60267;BME280;46125;61.360;-149.532;2023-05-10T10:55:10;99086.52;;;8.21;45.98
60267;BME280;46125;61.360;-149.532;2023-05-10T10:57:48;99083.26;;;7.03;47.72
60267;BME280;46125;61.360;-149.532;2023-05-10T11:00:24;99086.80;;;7.69;46.43
60267;BME280;46125;61.360;-149.532;2023-05-10T11:02:54;99088.81;;;7.80;47.35
60267;BME280;46125;61.360;-149.532;2023-05-10T11:05:33;99093.57;;;7.55;47.88
60267;BME280;46125;61.360;-149.532;2023-05-10T11:08:09;99096.06;;;7.05;49.10
60267;BME280;46125;61.360;-149.532;2023-05-10T11:10:38;99091.91;;;7.54;47.90
60267;BME280;46125;61.360;-149.532;2023-05-10T11:13:08;99088.86;;;6.81;49.21
60267;BME280;46125;61.360;-149.532;2023-05-10T11:15:39;99084.58;;;7.65;48.29
60267;BME280;46125;61.360;-149.532;2023-05-10T11:18:25;99080.27;;;7.07;49.23
60267;BME280;46125;61.360;-149.532;2023-05-10T11:20:57;99076.92;;;7.73;47.90
60267;BME280;46125;61.360;-149.532;2023-05-10T11:23:31;99079.38;;;7.78;47.00
60267;BME280;46125;61.360;-149.532;2023-05-10T11:26:00;99082.74;;;8.16;46.19
60267;BME280;46125;61.360;-149.532;2023-05-10T11:28:31;99082.05;;;8.21;46.07
60267;BME280;46125;61.360;-149.532;2023-05-10T11:30:59;99080.30;;;8.30;46.28
60267;BME280;46125;61.360;-149.532;2023-05-10T11:33:28;99079.77;;;8.01;46.41
60267;BME280;46125;61.360;-149.532;2023-05-10T11:35:56;99076.10;;;7.68;47.17
60267;BME280;46125;61.360;-149.532;2023-05-10T11:38:25;99072.09;;;8.11;47.43
60267;BME280;46125;61.360;-149.532;2023-05-10T11:40:53;99071.56;;;7.84;47.21
60267;BME280;46125;61.360;-149.532;2023-05-10T11:43:26;99069.53;;;6.76;50.18
60267;BME280;46125;61.360;-149.532;2023-05-10T11:45:55;99066.31;;;5.95;50.82
60267;BME280;46125;61.360;-149.532;2023-05-10T11:48:24;99067.52;;;7.43;48.36
60267;BME280;46125;61.360;-149.532;2023-05-10T11:50:52;99070.99;;;7.46;48.00
60267;BME280;46125;61.360;-149.532;2023-05-10T11:53:21;99078.27;;;7.97;47.97
60267;BME280;46125;61.360;-149.532;2023-05-10T11:55:49;99079.38;;;7.24;49.20
60267;BME280;46125;61.360;-149.532;2023-05-10T11:58:19;99078.18;;;7.50;48.05
60267;BME280;46125;61.360;-149.532;2023-05-10T12:00:48;99075.45;;;6.40;50.30
60267;BME280;46125;61.360;-149.532;2023-05-10T12:03:17;99078.28;;;6.87;50.16
60267;BME280;46125;61.360;-149.532;2023-05-10T12:05:45;99078.64;;;7.37;49.80
60267;BME280;46125;61.360;-149.532;2023-05-10T12:08:15;99075.72;;;6.32;51.75
60267;BME280;46125;61.360;-149.532;2023-05-10T12:10:43;99076.38;;;6.95;49.62
60267;BME280;46125;61.360;-149.532;2023-05-10T12:13:12;99072.55;;;7.18;49.34
60267;BME280;46125;61.360;-149.532;2023-05-10T12:15:42;99063.71;;;6.20;51.60
60267;BME280;46125;61.360;-149.532;2023-05-10T12:18:11;99062.95;;;7.29;48.72
60267;BME280;46125;61.360;-149.532;2023-05-10T12:20:40;99055.99;;;7.43;47.68
60267;BME280;46125;61.360;-149.532;2023-05-10T12:23:10;99050.48;;;7.81;47.00
60267;BME280;46125;61.360;-149.532;2023-05-10T12:25:39;99049.89;;;7.44;47.42
60267;BME280;46125;61.360;-149.532;2023-05-10T12:28:09;99046.74;;;7.60;48.14
60267;BME280;46125;61.360;-149.532;2023-05-10T12:30:39;99048.37;;;7.02;48.93
60267;BME280;46125;61.360;-149.532;2023-05-10T12:33:10;99052.63;;;7.56;48.99
60267;BME280;46125;61.360;-149.532;2023-05-10T12:35:47;99053.86;;;7.34;48.32
60267;BME280;46125;61.360;-149.532;2023-05-10T12:38:34;99049.52;;;7.55;48.08
60267;BME280;46125;61.360;-149.532;2023-05-10T12:41:05;99051.59;;;7.74;47.93
60267;BME280;46125;61.360;-149.532;2023-05-10T12:43:34;99056.61;;;8.26;47.52
60267;BME280;46125;61.360;-149.532;2023-05-10T12:46:07;99056.28;;;8.20;47.06
60267;BME280;46125;61.360;-149.532;2023-05-10T12:48:37;99048.20;;;7.41;48.27
60267;BME280;46125;61.360;-149.532;2023-05-10T12:51:07;99043.88;;;7.72;47.22
60267;BME280;46125;61.360;-149.532;2023-05-10T12:53:37;99045.20;;;7.31;48.31